Aviation Digital Data Service (ADDS)

Output produced by METARs form (0156 UTC 28 February 2015)
found at http://aviationweather.gov/adds/metars/
 
KAEX 280153Z 03009KT 10SM OVC110 02/M04 A3044 RMK AO2 SLP312 T00171039